Colorado AWOS List, Phone Numbers, Maps

USA |  
| Search AWOS

Rocky Mountain States: Montana | Wyoming | Colorado | New Mexico

Complete weather reports: Colorado

Legend: KFNL = METAR available Follow your local AWOS on AV Mobile = METAR available on AV Mobile
Station Colorado Location Frequency Phone
KAKOFAA ID AKO, ASOS, KAKO 302153Z AUTO 36029G40KT 10SM CLR 12/M09 A2980 RMK AO2 PK WND 35041/2124 SLP085 T01221089 $ Follow KAKO on AV Mobile COLORADO PLAINS REGIONAL 135.475 970-345-2320
KALSFAA ID ALS, ASOS, KALS 302152Z AUTO 34020G27KT 10SM CLR 14/M14 A2990 Follow KALS on AV Mobile SAN LUIS VALLEY REGIONAL 135.175 719-589-5669
KASEFAA ID ASE, ASOS, KASE 302153Z 33012G21KT 10SM SCT070 08/M08 A3004 Follow KASE on AV Mobile ASPEN-PITKIN COUNTY AIRPORT 120.400 970-925-9168
KBKFFAA ID BKF, KBKF 302158Z 36026G34KT 10SM FEW060 FEW200 14/M06 A2985 Follow KBKF on AV Mobile Aurora, Buckley Air Force Base Airport
K7BMFAA ID 7BM, AWOS-3, K7BM 302214Z AUTO 26019G28KT 230V350 10SM CLR 06/M12 A3000 RMK AO2 Follow K7BM on AV Mobile Cottonwood Pass 132.050 303-512-4919
KBDUFAA ID BDU, AWOS-3, KBDU 302217Z AUTO 34012G18KT 10SM CLR 16/M05 A2983 RMK AO2 Follow KBDU on AV Mobile Boulder Municipal Airport 118.825 303-541-9540
KAEJFAA ID AEJ, AWOS-3, KAEJ 302215Z AUTO 31021G26KT 10SM CLR 09/M14 A2995 RMK AO2 T00861138 Follow KAEJ on AV Mobile Central Colorado Regional Airport 132.925 719-395-2599
KITRFAA ID ITR, ASOS, KITR 221346Z AUTO 33004KT 7SM FEW003 BKN100 06/04 A3030 RMK AO2 T00560039 Follow KITR on AV Mobile Kit Carson County Airport 135.225 719-346-7036
K1V6FAA ID 1V6, AWOS-3, K1V6 302210Z AUTO 12005KT 10SM CLR 13/M01 A2985 RMK AO2 Follow K1V6 on AV Mobile CANON CITY 120.025
KAFFFAA ID AFF, KAFF 302158Z AUTO 34018G25KT 10SM CLR 09/M08 A2987 RMK AO2 PK WND 02029/2058 SLP114 T00881083 Follow KAFF on AV Mobile Air Force Academy
KCOSFAA ID COS, ASOS, KCOS 302154Z 35021G34KT 10SM FEW220 12/M09 A2987 Follow KCOS on AV Mobile COLORADO SPRINGS MUNI 125.000 719-637-9696
KFLYFAA ID FLY, AWOS-3PT, KFLY 302215Z AUTO 34015G24KT 10SM CLR 10/M08 A2988 RMK AO2 T01011077 Follow KFLY on AV Mobile Meadowlake Airport, Peyton, CO 118.450 719-683-5371
KCCUFAA ID CCU, AWOS-3, KCCU 302215Z AUTO 2SM HZ CLR M01/M11 A3009 RMK AO2 Follow KCCU on AV Mobile Copper Mountain, Red Cliff Pass 118.075 970-968-1715
KCEZFAA ID CEZ, ASOS, KCEZ 302153Z AUTO 31007G16KT 270V340 10SM CLR 15/M09 A3003 RMK AO2 PK WND 30026/2124 SLP139 T01501089 Follow KCEZ on AV Mobile CORTEZ MONTEZUMA COUNTY AIRPORT 135.625 970-564-0193
KCAGFAA ID CAG, ASOS, KCAG 302153Z AUTO 24011G18KT 10SM FEW075 OVC090 12/M06 A3003 Follow KCAG on AV Mobile CRAIG MOFFAT AIRPORT 135.425 970-824-2373
KRCVFAA ID RCV, AWOS-3PT, KRCV 302215Z AUTO 33013G22KT 10SM CLR 11/M13 A2995 RMK AO2 T01091130 Follow KRCV on AV Mobile DEL NORTE 118.275 719-657-9017
KAJZFAA ID AJZ, AWOS-3, KAJZ 302215Z AUTO 26016G23KT 10SM SCT100 18/M08 A3002 RMK AO2 T01761083 Follow KAJZ on AV Mobile Blake Field Airport 134.000 970-874-3251
KDNRICAO ID KDNR Denver / Stapleton International, Co.
KAPAFAA ID APA, ASOS, KAPA 302153Z 26009KT 10SM FEW050 FEW140 SCT220 10/M04 A2986 RMK AO2 SLP118 T01001039 Follow KAPA on AV Mobile DENVER CENTENNIAL AIRPORT 120.300 303-706-9098
KDENFAA ID DEN, ASOS, KDEN 302153Z 34027G37KT 10SM FEW100 FEW220 16/M07 A2983 Follow KDEN on AV Mobile DENVER INTERNATIONAL AIRPORT 125.600 303-342-0838
KFTGFAA ID FTG, AWOS-3, KFTG 302147Z 32029G37KT 10SM SCT080 SCT220 14/M03 A2984 Follow KFTG on AV Mobile Front Range Airport 119.025 303-261-9104
KBJCFAA ID BJC, AWOS-3, KBJC 302149Z 23003KT 50SM FEW090 SCT200 14/M04 A2986 Follow KBJC on AV Mobile Rocky Mountain Metro Airport 126.250 720-887-8067
K4V5ICAO ID K4V5 Durango Aviation Weather Reporting Station
KDROFAA ID DRO, ASOS, KDRO 302153Z AUTO 26020G29KT 10SM CLR 17/M11 A2994 RMK AO2 PK WND 26029/2149 SLP119 T01671111 Follow KDRO on AV Mobile DURANGO-LA PLATA COUNTY AIRPORT 120.625 970-259-3579
KEGEFAA ID EGE, AWOS-3, KEGE 302150Z 30011G17KT 10SM BKN060 12/M10 A3005 Follow KEGE on AV Mobile Eagle County Regional 135.575 970-524-7386
CO90FAA ID CO90, ASOS, KM25 302250Z AUTO 17014G19KT 10SM BKN022 OVC028 22/20 A2968 RMK AO2 PWINO Follow  on AV Mobile USAF Academy Bullseye Aux Airstrip 118.325 719-683-3346
K0COFAA ID 0CO, AWOS-3, K0CO 302221Z AUTO 32040KT M1/4SM -SN OVC023 M08/M14 A2998 RMK AO2 Follow K0CO on AV Mobile EMPIRE 134.325
KEIKFAA ID EIK, AWOS-3, KEIK 302215Z AUTO 29008G17KT 280V350 10SM CLR 18/M09 A2983 RMK AO2 T01761091 Follow KEIK on AV Mobile Erie Municipal Airport 133.825 303-604-4339
KFCSFAA ID FCS, KFCS 302158Z AUTO 35016G25KT 10SM CLR 13/M07 A2985 RMK AO2 PK WND 36030/42 SLP113 T01311072 10133 20032 401331016 $ Follow KFCS on AV Mobile Fort Carson
KFCLICAO ID KFCL Fort Collins Supplementary Aviation Weather Reporting Station
KFNLFAA ID FNL, AWOS-3, KFNL 302156Z AUTO 32021G33KT 10SM CLR 16/M06 A2985 RMK AO2 PK WND 31034/2104 SLP097 T01611056 Follow KFNL on AV Mobile Fort Collins/Loveland, Fort Collins-Loveland Municipal Airport 135.075 970-669-9187
KFMMFAA ID FMM, AWOS-3, KFMM 302215Z AUTO 36024G33KT 10SM CLR 15/M07 A2983 RMK AO2 T01481070 Follow KFMM on AV Mobile Fort Morgan Municipal Airport 132.950 970-867-4823
KGNBFAA ID GNB, AWOS-3PT Granby-Grand County Airport 119.925 970-887-1803
KGJTFAA ID GJT, ASOS, KGJT 302153Z 26008KT 10SM FEW095 16/M08 A3002 Follow KGJT on AV Mobile GRAND JUNCTION WALKER FIELD 118.550 970-245-7881
KGXYFAA ID GXY, AWOS-3, KGXY 302156Z AUTO 33026G33KT 10SM SCT095 17/M06 A2982 RMK AO2 SLP096 T01721061 TSNO Follow KGXY on AV Mobile Greeley, Greeley-Weld County Airport 135.175 970-352-3511
K2V9ICAO ID K2V9 Gunnison Aviation Weather Reporting Station
KGUCFAA ID GUC, AWOS-3, KGUC 302156Z AUTO 29013G19KT 10SM CLR 10/M11 A3003 RMK AO2 SLP162 T01001106 Follow KGUC on AV Mobile Gunnison, Gunnison-Crested Butte Regional Airport 135.075 970-641-3240
KHDNFAA ID HDN, AWOS-3, KHDN 302215Z AUTO 27012G17KT 10SM SCT065 10/M07 A3002 RMK AO1 Follow KHDN on AV Mobile Hayden, Yampa Valley Airport 119.275 970-276-3690
KHEQFAA ID HEQ, AWOS-3, KHEQ 302215Z AUTO 36028G35KT 10SM CLR 12/M06 A2977 RMK AO2 Follow KHEQ on AV Mobile Holyoke Airport 119.275 970-854-3679
K20VFAA ID 20V, AWOS-3, K20V 302215Z AUTO 33011KT 10SM BKN065 BKN075 10/M06 A3005 RMK AO2 Follow K20V on AV Mobile Kremmling, Mc Elroy Airfield 118.425 970-724-9659
KLHXFAA ID LHX, ASOS, KLHX 302153Z AUTO 33021G36KT 10SM CLR 14/M01 A2980 RMK AO2 PK WND 33040/2117 SLP073 T01441006 $ Follow KLHX on AV Mobile LA JUNTA MUNICIPAL AIRPORT 135.525 719-384-5961
KVTPFAA ID VTP, AWOS-3, KVTP 302218Z AUTO 29010G16KT 10SM CLR 06/M08 A3008 RMK AO2 P0004 Follow KVTP on AV Mobile La Veta Mountain, La Veta Pass 119.925 719-587-3120
KLAAFAA ID LAA, ASOS, KLAA 302153Z AUTO 35026G38KT 10SM CLR 13/M03 A2973 RMK AO2 PK WND 34038/2153 SLP054 T01331033 Follow KLAA on AV Mobile LAMAR MUNICIPAL AIRPORT 135.625 719-336-3854
KLXVFAA ID LXV, ASOS, KLXV 302153Z AUTO 31022G32KT 10SM CLR 03/M10 A3003 Follow KLXV on AV Mobile LEADVILLE LAKE CO 118.375 719-486-2735
KLICFAA ID LIC, ASOS, KLIC 302155Z AUTO 34033G42KT 10SM CLR 12/M07 A2979 RMK AO2 PK WND 35043/2102 SLP071 T01221067 Follow KLIC on AV Mobile LIMON MUNICIPAL AIRPORT 121.125 719-775-0515
KLMOFAA ID LMO, AWOS-3, KLMO 302215Z AUTO 30019G24KT 10SM CLR 19/M08 A2984 RMK AO2 T01911082 Follow KLMO on AV Mobile Vance Brand Airport 120.000 303-684-7545
KEEOFAA ID EEO, ASOS, KEEO 302153Z AUTO 10SM BKN070 OVC085 12/M06 A3005 RMK AO2 SLP161 T01221061 Follow KEEO on AV Mobile MEEKER AIRPORT 135.525 970-878-5036
KMYPFAA ID MYP, AWOS-3, KMYP 302211Z AUTO 30025G36KT VCTS SCT120 M02/M11 A3016 RMK AO2 Follow KMYP on AV Mobile Salida Mountain, Monarch Pass 124.175 719-539-4436
KMTJFAA ID MTJ, ASOS, KMTJ 302153Z AUTO 17004KT 10SM CLR 12/M08 A3007 RMK AO2 SLP158 T01221083 Follow KMTJ on AV Mobile MONTROSE REGIONAL AIRPORT 135.225 970-249-1534
KMNHFAA ID MNH, AWOS-3, KMNH 302215Z AUTO 34009KT 10SM CLR 06/M05 A2990 RMK AO2 Follow KMNH on AV Mobile Elbert Mountain, Monument Pass 134.375 303-648-3479
KCRVICAO ID KCRV Nederland Mountain, Corona Pass
KAIBFAA ID AIB, AWOS-3, KAIB 302215Z AUTO 32013G16KT 10SM CLR 16/M11 A3007 RMK AO2 Follow KAIB on AV Mobile Hopkins Field Airport 132.525 970-864-2325
KPSOFAA ID PSO, AWOS-3, KPSO 302215Z AUTO 21007G14KT 10SM CLR 13/M15 A2997 RMK AO2 T01311148 Follow KPSO on AV Mobile Stevens Field Airport 127.175 970-731-0365
KPEFICAO ID KPEF Peterson Air Force Base
KPUXICAO ID KPUX Pueblo NEXRAD
KPUBFAA ID PUB, ASOS, KPUB 302153Z 23013KT 10SM CLR 12/00 A2985 Follow KPUB on AV Mobile PUEBLO MEMORIAL AIRPORT 125.250 719-948-2803
4V0FAA ID 4V0, AWOS-3PT, KM25 302250Z AUTO 17014G19KT 10SM BKN022 OVC028 22/20 A2968 RMK AO2 PWINO Follow  on AV Mobile RANGELY 119.025 970-675-2339
K1V1ICAO ID K1V1 Rifle Aviation Weather Reporting Station
KRILFAA ID RIL, ASOS, KRIL 302153Z AUTO VRB05G20KT 10SM BKN095 16/M10 A3002 RMK AO2 SLP145 T01561100 Follow KRIL on AV Mobile RIFLE GARFIELD COUNTY RGNL 135.275 970-625-2206
K04VFAA ID 04V, AWOS-3, K04V 302217Z AUTO 32026G32KT 10SM CLR 12/M13 A2993 RMK AO2 Follow K04V on AV Mobile Saguache, Saguache Municipal Airport 118.625 719-655-2229
KS29ICAO ID KS29 Salida
KANKFAA ID ANK, AWOS-3, KANK 302215Z AUTO 36019G24KT 10SM CLR 13/M13 A2998 RMK AO1 T01341129 Follow KANK on AV Mobile Harriet Alexander Field Airport 133.850 719-539-5268
KSPDICAO ID KSPD, KSPD 302156Z AUTO 31016KT 04/M01 A2977 RMK AO1 PK WND 32029/2101 SLP081 T00391011 $ Follow KSPD on AV Mobile SPRINGFIELD COMANCHE NATL
KSBSFAA ID SBS, AWOS-3, KSBS 302215Z AUTO 24010G15KT 10SM SCT044 BKN060 BKN065 08/M05 A3003 RMK AO1 T00771050 Follow KSBS on AV Mobile Steamboat Springs 118.325 970-879-7794
KSTKFAA ID STK, AWOS-3, KSTK 302210Z AUTO 36023G28KT 10SM CLR 14/M05 A2980 RMK AO2 Follow KSTK on AV Mobile Sterling Municipal Airport 118.525 970-526-3009
K5SMFAA ID 5SM, AWOS-3, K5SM 302211Z AUTO 29004KT 240V100 10SM BKN041 OVC047 M01/M09 A3018 RMK AO2 Follow K5SM on AV Mobile Sunlight 126.075 970-384-3380
KTEXFAA ID TEX, AWOS-3, KTEX 302215Z AUTO 00000KT 10SM CLR 06/M08 A3013 RMK AO2 T00611085 Follow KTEX on AV Mobile Telluride, Telluride Regional Airport 118.325 970-728-1534
KTADFAA ID TAD, ASOS, KTAD 302154Z AUTO 01006KT 10SM CLR 08/M05 A2990 RMK AO2 SLP117 T00781050 TSNO Follow KTAD on AV Mobile Trinidad, Perry Stokes Airport 119.025 719-845-1156
K33VFAA ID 33V, AWOS-3, K33V 302215Z AUTO 30014G27KT 10SM 06/M09 A3004 RMK AO1 Follow K33V on AV Mobile WALDEN 118.625 970-723-4513
4V1FAA ID 4V1, AWOS-3, KM25 302250Z AUTO 17014G19KT 10SM BKN022 OVC028 22/20 A2968 RMK AO2 PWINO Follow  on AV Mobile Spanish Peaks Airfield 123.600 719-738-1053
K4BMFAA ID 4BM, AWOS-3, K4BM 302215Z AUTO 33013G27KT 260V010 10SM CLR 01/M10 A3003 RMK AO2 Follow K4BM on AV Mobile Wilkerson Pass 132.3 303-512-4418
KC96ICAO ID KC96 Winter Park Resort
KCPWFAA ID CPW, AWOS-3, KCPW 302212Z AUTO 32004KT 10SM CLR 00/M15 A3017 RMK AO2 Follow KCPW on AV Mobile Pagosa Springs, Wolf Creek Pass 121.125 970-264-2180
K2V5FAA ID 2V5, AWOS-3, K2V5 072055Z AUTO 15009KT 110V170 10SM CLR 26/00 A2979 RMK AO2 Follow K2V5 on AV Mobile Wray Municipal Airport 118.250 970-332-5930
K2V6FAA ID 2V6, AWOS-3, K2V6 302214Z AUTO 36025G35KT 10SM CLR 11/M05 A2977 RMK AO2 Follow K2V6 on AV Mobile YUMA 135.375 970-848-3007

Click on the AV Mobile icon AV Mobile icon by any station to follow that AWOS feed on AirportView.net Mobile.

Legend: Commercial service airport with AWOS Commercial Airport AWOSNon-Commercial service airport with AWOS Non-Commercial Airport AWOS
Airport AWOS - Click symbol for weather report Fort Morgan Municipal Airport KFMM 302215Z AUTO 36024G33KT 10SM CLR 15/M07 A2983 RMK AO2 T01481070 Hopkins Field Airport KAIB 302215Z AUTO 32013G16KT 10SM CLR 16/M11 A3007 RMK AO2 Telluride, Telluride Regional Airport KTEX 302215Z AUTO 00000KT 10SM CLR 06/M08 A3013 RMK AO2 T00611085 Greeley, Greeley-Weld County Airport KGXY 302156Z AUTO 33026G33KT 10SM SCT095 17/M06 A2982 RMK AO2 SLP096 T01721061 TSNO Front Range Airport KFTG 302147Z 32029G37KT 10SM SCT080 SCT220 14/M03 A2984 Rocky Mountain Metro Airport KBJC 302149Z 23003KT 50SM FEW090 SCT200 14/M04 A2986 DENVER CENTENNIAL AIRPORT KAPA 302153Z 26009KT 10SM FEW050 FEW140 SCT220 10/M04 A2986 RMK AO2 SLP118 T01001039 DENVER INTERNATIONAL AIRPORT KDEN 302153Z 34027G37KT 10SM FEW100 FEW220 16/M07 A2983 Fort Collins/Loveland, Fort Collins-Loveland Municipal Airport KFNL 302156Z AUTO 32021G33KT 10SM CLR 16/M06 A2985 RMK AO2 PK WND 31034/2104 SLP097 T01611056 Boulder Municipal Airport KBDU 302217Z AUTO 34012G18KT 10SM CLR 16/M05 A2983 RMK AO2 Vance Brand Airport KLMO 302215Z AUTO 30019G24KT 10SM CLR 19/M08 A2984 RMK AO2 T01911082 Sterling Municipal Airport KSTK 302210Z AUTO 36023G28KT 10SM CLR 14/M05 A2980 RMK AO2 Holyoke Airport KHEQ 302215Z AUTO 36028G35KT 10SM CLR 12/M06 A2977 RMK AO2 COLORADO PLAINS REGIONAL KAKO 302153Z AUTO 36029G40KT 10SM CLR 12/M09 A2980 RMK AO2 PK WND 35041/2124 SLP085 T01221089 $ Kit Carson County Airport KITR 221346Z AUTO 33004KT 7SM FEW003 BKN100 06/04 A3030 RMK AO2 T00560039 LIMON MUNICIPAL AIRPORT KLIC 302155Z AUTO 34033G42KT 10SM CLR 12/M07 A2979 RMK AO2 PK WND 35043/2102 SLP071 T01221067 COLORADO SPRINGS MUNI KCOS 302154Z 35021G34KT 10SM FEW220 12/M09 A2987 LAMAR MUNICIPAL AIRPORT KLAA 302153Z AUTO 35026G38KT 10SM CLR 13/M03 A2973 RMK AO2 PK WND 34038/2153 SLP054 T01331033 LA JUNTA MUNICIPAL AIRPORT KLHX 302153Z AUTO 33021G36KT 10SM CLR 14/M01 A2980 RMK AO2 PK WND 33040/2117 SLP073 T01441006 $ Trinidad, Perry Stokes Airport KTAD 302154Z AUTO 01006KT 10SM CLR 08/M05 A2990 RMK AO2 SLP117 T00781050 TSNO PUEBLO MEMORIAL AIRPORT KPUB 302153Z 23013KT 10SM CLR 12/00 A2985 CANON CITY 1V6 SAN LUIS VALLEY REGIONAL KALS 302152Z AUTO 34020G27KT 10SM CLR 14/M14 A2990 Saguache, Saguache Municipal Airport K04V 302217Z AUTO 32026G32KT 10SM CLR 12/M13 A2993 RMK AO2 Granby-Grand County Airport KGNB WALDEN 33V Steamboat Springs KSBS 302215Z AUTO 24010G15KT 10SM SCT044 BKN060 BKN065 08/M05 A3003 RMK AO1 T00771050 Hayden, Yampa Valley Airport KHDN 302215Z AUTO 27012G17KT 10SM SCT065 10/M07 A3002 RMK AO1 Kremmling, Mc Elroy Airfield K20V 302215Z AUTO 33011KT 10SM BKN065 BKN075 10/M06 A3005 RMK AO2 LEADVILLE LAKE CO KLXV 302153Z AUTO 31022G32KT 10SM CLR 03/M10 A3003 Eagle County Regional KEGE 302150Z 30011G17KT 10SM BKN060 12/M10 A3005 CRAIG MOFFAT AIRPORT KCAG 302153Z AUTO 24011G18KT 10SM FEW075 OVC090 12/M06 A3003 MEEKER AIRPORT KEEO 302153Z AUTO 10SM BKN070 OVC085 12/M06 A3005 RMK AO2 SLP161 T01221061 ASPEN-PITKIN COUNTY AIRPORT KASE 302153Z 33012G21KT 10SM SCT070 08/M08 A3004 Gunnison, Gunnison-Crested Butte Regional Airport KGUC 302156Z AUTO 29013G19KT 10SM CLR 10/M11 A3003 RMK AO2 SLP162 T01001106 DURANGO-LA PLATA COUNTY AIRPORT  KDRO 302153Z AUTO 26020G29KT 10SM CLR 17/M11 A2994 RMK AO2 PK WND 26029/2149 SLP119 T01671111 Stevens Field Airport KPSO 302215Z AUTO 21007G14KT 10SM CLR 13/M15 A2997 RMK AO2 T01311148 CORTEZ MONTEZUMA COUNTY AIRPORT  KCEZ 302153Z AUTO 31007G16KT 270V340 10SM CLR 15/M09 A3003 RMK AO2 PK WND 30026/2124 SLP139 T01501089 MONTROSE REGIONAL AIRPORT KMTJ 302153Z AUTO 17004KT 10SM CLR 12/M08 A3007 RMK AO2 SLP158 T01221083 RIFLE GARFIELD COUNTY RGNL KRIL 302153Z AUTO VRB05G20KT 10SM BKN095 16/M10 A3002 RMK AO2 SLP145 T01561100 GRAND JUNCTION WALKER FIELD KGJT 302153Z 26008KT 10SM FEW095 16/M08 A3002 Blake Field Airport KAJZ 302215Z AUTO 26016G23KT 10SM SCT100 18/M08 A3002 RMK AO2 T01761083 Central Colorado Regional Airport KAEJ 302215Z AUTO 31021G26KT 10SM CLR 09/M14 A2995 RMK AO2 T00861138 Harriet Alexander Field Airport KANK 302215Z AUTO 36019G24KT 10SM CLR 13/M13 A2998 RMK AO1 T01341129 Erie Municipal Airport KEIK 302215Z AUTO 29008G17KT 280V350 10SM CLR 18/M09 A2983 RMK AO2 T01761091 Wray Municipal Airport K2V5 072055Z AUTO 15009KT 110V170 10SM CLR 26/00 A2979 RMK AO2
Legend: High Mountain AWOS Mountain Pass AWOS
Mountain Pass AWOS - Click symbol for weather report Pagosa Springs, Wolf Creek Pass KCPW 302212Z AUTO 32004KT 10SM CLR 00/M15 A3017 RMK AO2 Saguache, Saguache Municipal Airport K04V 302217Z AUTO 32026G32KT 10SM CLR 12/M13 A2993 RMK AO2 Kremmling, Mc Elroy Airfield K20V 302215Z AUTO 33011KT 10SM BKN065 BKN075 10/M06 A3005 RMK AO2 La Veta Mountain, La Veta Pass KVTP 302218Z AUTO 29010G16KT 10SM CLR 06/M08 A3008 RMK AO2 P0004 Salida Mountain, Monarch Pass KMYP 302211Z AUTO 30025G36KT VCTS SCT120 M02/M11 A3016 RMK AO2 Cottonwood Pass K7BM 302214Z AUTO 26019G28KT 230V350 10SM CLR 06/M12 A3000 RMK AO2 Elbert Mountain, Monument Pass KMNH 302215Z AUTO 34009KT 10SM CLR 06/M05 A2990 RMK AO2 Wilkerson Pass K4BM 302215Z AUTO 33013G27KT 260V010 10SM CLR 01/M10 A3003 RMK AO2 Copper Mountain, Red Cliff Pass KCCU 302215Z AUTO 2SM HZ CLR M01/M11 A3009 RMK AO2 EMPIRE 0CO Sunlight K5SM 302211Z AUTO 29004KT 240V100 10SM BKN041 OVC047 M01/M09 A3018 RMK AO2
Garmin Target Trend Avemco Insurance Company